logo
Search for airport 
image banner adimage banner adimage banner ad
image banner ad

OEGN - Jazan / King Abdullah Bin Abdulaziz (Regional)

Located in Jazan, Saudi Arabia

ICAO - OEGN, IATA - GIZ

Data provided by Airmate  

General information

Coordinates: N16°54'4" E42°35'9"
Elevation is 20 feet MSL.
 
View others Airports in Jlzan

Operational data

Special qualification required
Current time UTC:
Current local time:
Weather
METAR: OEGN 131900Z 31007KT 9999 FEW030 31/26 Q1008 NOSIG
TAF: TAF OEGN 131100Z 1312/1418 29012KT 7000 SCT030 BECMG 1318/1320 35006KT BECMG 1406/1408 28012KT
View NOTAMs / SUP AIP / TFR affecting this airport [VIEW]
Communications frequencies: [VIEW]

Runways:

RWY identifierQFULength (ft)Width (ft)SurfaceLDA (ft)
15150°10007148ASP
33330°10007148ASP

Airport contact information

Address: Jazan Saudi Arabia

Satellite view of OEGN